EZS72EU GMAD-LSGG
Flight info
| Callsign | EZS72EU |
|---|---|
| Flight time | 2h 48m |
| Altitude | 36000 |
| Route | MOGBA UH400 AGALI UR724 ESS UN871 ADUBI N871 VJF N10 SVL DCT HIJ DCT CRISA DCT INPAN DCT VTB N871 TOPTU DCT TOU DCT GAI DCT MEN DCT NINUN/N0402F300 DCT LATAM DCT ETREK DCT LUXAN G53 LTP Z16 BELUS |
| Aircraft | A320/M-SDE2E3FGHIJ1RWXYZ/LB1 |
Departure
| Time | 2026-05-04 11:26 |
|---|---|
| Airport | Al Massira Airport (GMAD) |
Arrival
| Time | 2026-05-04 14:14 |
|---|---|
| Airport | Geneva International Airport (LSGG) |
| Time | Latitude | Longitude | Altitude | Speed | Heading |
|---|---|---|---|---|---|
| 2026-05-04 11:16 | 30.32748 | -9.41119 | 234 ft | 0 kts | 56° |
| 2026-05-04 11:19 | 30.32751 | -9.41113 | 238 ft | 3 kts | 56° |
| 2026-05-04 11:19 | 30.32771 | -9.41081 | 235 ft | 6 kts | 44° |
| 2026-05-04 11:19 | 30.32801 | -9.41060 | 237 ft | 4 kts | 38° |
| 2026-05-04 11:20 | 30.32809 | -9.41034 | 238 ft | 6 kts | 84° |
| 2026-05-04 11:20 | 30.32808 | -9.40956 | 237 ft | 10 kts | 92° |
| 2026-05-04 11:20 | 30.32805 | -9.40884 | 238 ft | 8 kts | 92° |
| 2026-05-04 11:20 | 30.32804 | -9.40835 | 239 ft | 5 kts | 92° |
| 2026-05-04 11:22 | 30.32430 | -9.40341 | 247 ft | 21 kts | 92° |
| 2026-05-04 11:22 | 30.32427 | -9.40181 | 249 ft | 19 kts | 91° |
| 2026-05-04 11:23 | 30.32424 | -9.40041 | 252 ft | 16 kts | 91° |
| 2026-05-04 11:23 | 30.32421 | -9.39922 | 254 ft | 16 kts | 91° |
| 2026-05-04 11:24 | 30.32223 | -9.39564 | 263 ft | 11 kts | 269° |
| 2026-05-04 11:25 | 30.32229 | -9.39809 | 257 ft | 64 kts | 271° |
| 2026-05-04 11:25 | 30.32247 | -9.40582 | 242 ft | 126 kts | 271° |
| 2026-05-04 11:25 | 30.32276 | -9.41790 | 274 ft | 169 kts | 269° |
| 2026-05-04 11:26 | 30.32415 | -9.44501 | 1602 ft | 177 kts | 280° |
| 2026-05-04 11:27 | 30.40983 | -9.52912 | 6038 ft | 265 kts | 351° |
| 2026-05-04 11:28 | 30.42825 | -9.53203 | 6821 ft | 269 kts | 351° |
| 2026-05-04 11:28 | 30.44695 | -9.53493 | 7573 ft | 273 kts | 351° |
| 2026-05-04 11:28 | 30.46594 | -9.53788 | 8364 ft | 277 kts | 350° |
| 2026-05-04 11:28 | 30.48520 | -9.54089 | 9148 ft | 281 kts | 349° |
| 2026-05-04 11:29 | 30.50468 | -9.54395 | 9933 ft | 284 kts | 349° |
| 2026-05-04 11:29 | 30.52462 | -9.54713 | 10431 ft | 299 kts | 348° |
| 2026-05-04 11:29 | 30.54602 | -9.55059 | 10631 ft | 322 kts | 348° |
| 2026-05-04 11:29 | 30.56866 | -9.55421 | 11116 ft | 333 kts | 349° |
| 2026-05-04 11:31 | 30.73692 | -9.58072 | 15514 ft | 362 kts | 348° |
| 2026-05-04 11:33 | 30.91787 | -9.60945 | 19274 ft | 386 kts | 347° |
| 2026-05-04 11:33 | 30.94462 | -9.61372 | 19770 ft | 389 kts | 347° |
| 2026-05-04 11:33 | 30.97154 | -9.61802 | 20264 ft | 392 kts | 347° |
| 2026-05-04 11:34 | 30.99863 | -9.62235 | 20748 ft | 395 kts | 347° |
| 2026-05-04 11:34 | 31.02555 | -9.62665 | 21219 ft | 397 kts | 346° |
| 2026-05-04 11:34 | 31.05304 | -9.63104 | 21689 ft | 400 kts | 346° |
| 2026-05-04 11:34 | 31.08073 | -9.63546 | 22154 ft | 403 kts | 346° |
| 2026-05-04 11:35 | 31.10858 | -9.63992 | 22629 ft | 406 kts | 346° |
| 2026-05-04 11:35 | 31.13664 | -9.64443 | 23084 ft | 408 kts | 346° |
| 2026-05-04 11:35 | 31.16489 | -9.64895 | 23525 ft | 411 kts | 346° |
| 2026-05-04 11:35 | 31.19335 | -9.65348 | 23887 ft | 414 kts | 346° |
| 2026-05-04 11:36 | 31.22203 | -9.65807 | 24250 ft | 417 kts | 346° |
| 2026-05-04 11:36 | 31.25081 | -9.66269 | 24619 ft | 419 kts | 346° |
| 2026-05-04 11:36 | 31.27978 | -9.66734 | 24996 ft | 421 kts | 346° |
| 2026-05-04 11:36 | 31.30887 | -9.67200 | 25363 ft | 423 kts | 346° |
| 2026-05-04 11:37 | 31.33807 | -9.67667 | 25722 ft | 425 kts | 346° |
| 2026-05-04 11:37 | 31.36775 | -9.67931 | 26065 ft | 434 kts | 355° |
| 2026-05-04 11:37 | 31.39813 | -9.67555 | 26400 ft | 445 kts | 6° |
| 2026-05-04 11:37 | 31.42807 | -9.66500 | 26727 ft | 456 kts | 18° |
| 2026-05-04 11:38 | 31.45634 | -9.64748 | 27091 ft | 463 kts | 27° |
| 2026-05-04 11:38 | 31.48375 | -9.62746 | 27438 ft | 465 kts | 27° |
| 2026-05-04 11:38 | 31.51129 | -9.60747 | 27781 ft | 467 kts | 27° |
| 2026-05-04 11:38 | 31.53901 | -9.58745 | 28109 ft | 469 kts | 27° |
| 2026-05-04 11:39 | 31.56685 | -9.56740 | 28438 ft | 471 kts | 27° |
| 2026-05-04 11:39 | 31.59487 | -9.54727 | 28764 ft | 473 kts | 27° |
| 2026-05-04 11:40 | 31.76513 | -9.42412 | 30525 ft | 484 kts | 27° |
| 2026-05-04 11:41 | 31.79382 | -9.40329 | 30765 ft | 486 kts | 27° |
| 2026-05-04 11:41 | 31.82267 | -9.38231 | 30990 ft | 488 kts | 27° |
| 2026-05-04 11:41 | 31.85155 | -9.36128 | 31282 ft | 488 kts | 27° |
| 2026-05-04 11:41 | 31.87997 | -9.34056 | 31594 ft | 487 kts | 27° |
| 2026-05-04 11:42 | 31.90879 | -9.31953 | 31903 ft | 487 kts | 27° |
| 2026-05-04 11:42 | 31.93796 | -9.29827 | 32209 ft | 487 kts | 27° |
| 2026-05-04 11:42 | 31.96640 | -9.27752 | 32509 ft | 487 kts | 27° |
| 2026-05-04 11:42 | 31.99518 | -9.25653 | 32819 ft | 487 kts | 27° |
| 2026-05-04 11:43 | 32.02400 | -9.23552 | 33137 ft | 486 kts | 27° |
| 2026-05-04 11:43 | 32.05273 | -9.21455 | 33460 ft | 486 kts | 27° |
| 2026-05-04 11:43 | 32.08144 | -9.19356 | 33782 ft | 485 kts | 27° |
| 2026-05-04 11:43 | 32.11009 | -9.17255 | 34074 ft | 485 kts | 27° |
| 2026-05-04 11:44 | 32.13873 | -9.15152 | 34324 ft | 485 kts | 27° |
| 2026-05-04 11:44 | 32.16742 | -9.13047 | 34560 ft | 485 kts | 27° |
| 2026-05-04 11:44 | 32.19609 | -9.10948 | 34783 ft | 485 kts | 27° |
| 2026-05-04 11:44 | 32.22479 | -9.08845 | 35009 ft | 485 kts | 26° |
| 2026-05-04 11:45 | 32.25344 | -9.06737 | 35238 ft | 485 kts | 26° |
| 2026-05-04 11:45 | 32.28212 | -9.04626 | 35467 ft | 485 kts | 26° |
| 2026-05-04 11:45 | 32.31081 | -9.02515 | 35697 ft | 485 kts | 26° |
| 2026-05-04 11:45 | 32.33947 | -9.00406 | 35899 ft | 486 kts | 26° |
| 2026-05-04 11:46 | 32.36813 | -8.98293 | 36055 ft | 486 kts | 26° |
| 2026-05-04 11:46 | 32.42525 | -8.94069 | 36100 ft | 482 kts | 26° |
| 2026-05-04 11:47 | 32.48211 | -8.89863 | 36097 ft | 482 kts | 26° |
| 2026-05-04 11:47 | 32.53896 | -8.85662 | 36097 ft | 481 kts | 26° |
| 2026-05-04 11:48 | 32.59584 | -8.81453 | 36116 ft | 482 kts | 26° |
| 2026-05-04 11:48 | 32.65272 | -8.77236 | 36093 ft | 482 kts | 26° |
| 2026-05-04 11:49 | 32.70960 | -8.73002 | 36091 ft | 483 kts | 26° |
| 2026-05-04 11:49 | 32.76610 | -8.68791 | 36090 ft | 483 kts | 26° |
| 2026-05-04 11:50 | 32.82300 | -8.64549 | 36091 ft | 483 kts | 26° |
| 2026-05-04 11:50 | 32.87066 | -8.60986 | 36136 ft | 483 kts | 26° |
| 2026-05-04 11:51 | 32.93686 | -8.56035 | 36109 ft | 484 kts | 26° |
| 2026-05-04 11:51 | 32.98457 | -8.52457 | 36105 ft | 484 kts | 26° |
| 2026-05-04 11:52 | 33.04155 | -8.48186 | 36099 ft | 484 kts | 26° |
| 2026-05-04 11:52 | 33.09858 | -8.43906 | 36107 ft | 485 kts | 26° |
| 2026-05-04 11:53 | 33.15526 | -8.39640 | 36099 ft | 485 kts | 26° |
| 2026-05-04 11:53 | 33.21228 | -8.35344 | 36103 ft | 485 kts | 26° |
| 2026-05-04 11:55 | 33.44054 | -8.18146 | 36138 ft | 485 kts | 26° |
| 2026-05-04 11:56 | 33.49761 | -8.13822 | 36126 ft | 485 kts | 26° |
| 2026-05-04 11:56 | 33.55474 | -8.09493 | 36107 ft | 486 kts | 26° |
| 2026-05-04 11:57 | 33.61187 | -8.05156 | 36106 ft | 486 kts | 26° |
| 2026-05-04 11:57 | 33.66854 | -8.00840 | 36110 ft | 486 kts | 26° |
| 2026-05-04 11:58 | 33.72564 | -7.96492 | 36129 ft | 486 kts | 26° |
| 2026-05-04 11:58 | 33.78282 | -7.92140 | 36122 ft | 487 kts | 26° |
| 2026-05-04 11:59 | 33.84003 | -7.87778 | 36116 ft | 487 kts | 26° |
| 2026-05-04 11:59 | 33.89723 | -7.83399 | 36114 ft | 487 kts | 26° |
| 2026-05-04 12:00 | 33.95439 | -7.79013 | 36111 ft | 487 kts | 26° |
| 2026-05-04 12:00 | 34.01149 | -7.74626 | 36146 ft | 487 kts | 26° |
| 2026-05-04 12:01 | 34.06865 | -7.70228 | 36137 ft | 487 kts | 26° |
| 2026-05-04 12:02 | 34.26884 | -7.54817 | 36150 ft | 488 kts | 26° |
| 2026-05-04 12:03 | 34.32613 | -7.50383 | 36129 ft | 489 kts | 26° |
| 2026-05-04 12:03 | 34.38306 | -7.45962 | 36122 ft | 490 kts | 26° |
| 2026-05-04 12:04 | 34.44078 | -7.41475 | 36120 ft | 490 kts | 26° |
| 2026-05-04 12:04 | 34.49769 | -7.37028 | 36119 ft | 490 kts | 26° |
| 2026-05-04 12:05 | 34.55498 | -7.32547 | 36142 ft | 490 kts | 26° |
| 2026-05-04 12:05 | 34.61232 | -7.28067 | 36129 ft | 490 kts | 26° |
| 2026-05-04 12:06 | 34.66964 | -7.23585 | 36123 ft | 490 kts | 26° |
| 2026-05-04 12:06 | 34.72697 | -7.19088 | 36114 ft | 490 kts | 26° |
| 2026-05-04 12:07 | 34.78433 | -7.14585 | 36153 ft | 491 kts | 25° |
| 2026-05-04 12:07 | 34.84176 | -7.10072 | 36144 ft | 491 kts | 25° |
| 2026-05-04 12:08 | 34.89920 | -7.05559 | 36126 ft | 491 kts | 26° |
| 2026-05-04 12:08 | 34.95629 | -7.01051 | 36129 ft | 491 kts | 26° |
| 2026-05-04 12:09 | 35.01359 | -6.96515 | 36120 ft | 491 kts | 26° |
| 2026-05-04 12:09 | 35.07095 | -6.91974 | 36156 ft | 491 kts | 26° |
| 2026-05-04 12:10 | 35.12825 | -6.87430 | 36141 ft | 491 kts | 26° |
| 2026-05-04 12:10 | 35.18549 | -6.82883 | 36141 ft | 491 kts | 26° |
| 2026-05-04 12:11 | 35.24232 | -6.78358 | 36127 ft | 491 kts | 26° |
| 2026-05-04 12:11 | 35.29950 | -6.73797 | 36122 ft | 491 kts | 26° |
| 2026-05-04 12:12 | 35.35711 | -6.69201 | 36144 ft | 491 kts | 25° |
| 2026-05-04 12:12 | 35.41427 | -6.64762 | 36136 ft | 489 kts | 24° |
| 2026-05-04 12:14 | 35.64486 | -6.47042 | 36110 ft | 487 kts | 25° |
| 2026-05-04 12:15 | 35.70221 | -6.42592 | 36090 ft | 488 kts | 25° |
| 2026-05-04 12:15 | 35.75964 | -6.38127 | 36092 ft | 488 kts | 25° |
| 2026-05-04 12:16 | 35.78895 | -6.36086 | 36095 ft | 478 kts | 14° |
| 2026-05-04 12:16 | 35.81997 | -6.34808 | 36095 ft | 468 kts | 7° |
| 2026-05-04 12:16 | 35.88251 | -6.32567 | 36096 ft | 468 kts | 7° |
| 2026-05-04 12:17 | 35.94514 | -6.30332 | 36096 ft | 469 kts | 7° |
| 2026-05-04 12:17 | 36.00785 | -6.28098 | 36095 ft | 469 kts | 7° |
| 2026-05-04 12:18 | 36.07057 | -6.25847 | 36101 ft | 469 kts | 7° |
| 2026-05-04 12:18 | 36.13332 | -6.23589 | 36125 ft | 470 kts | 7° |
| 2026-05-04 12:19 | 36.19611 | -6.21331 | 36120 ft | 470 kts | 7° |
| 2026-05-04 12:19 | 36.25896 | -6.19092 | 36113 ft | 470 kts | 7° |
| 2026-05-04 12:20 | 36.32182 | -6.16836 | 36106 ft | 470 kts | 7° |
| 2026-05-04 12:20 | 36.38471 | -6.14558 | 36124 ft | 471 kts | 7° |
| 2026-05-04 12:21 | 36.44768 | -6.12269 | 36104 ft | 472 kts | 7° |
| 2026-05-04 12:21 | 36.51074 | -6.09976 | 36096 ft | 472 kts | 7° |
| 2026-05-04 12:22 | 36.57380 | -6.07665 | 36075 ft | 473 kts | 7° |
| 2026-05-04 12:22 | 36.63692 | -6.05350 | 36108 ft | 473 kts | 7° |
| 2026-05-04 12:23 | 36.70013 | -6.03046 | 36091 ft | 473 kts | 7° |
| 2026-05-04 12:23 | 36.76340 | -6.00741 | 36083 ft | 474 kts | 7° |
| 2026-05-04 12:24 | 36.82672 | -5.98425 | 36084 ft | 475 kts | 7° |
| 2026-05-04 12:24 | 36.89011 | -5.96095 | 36104 ft | 475 kts | 8° |
| 2026-05-04 12:25 | 36.95346 | -5.93758 | 36088 ft | 475 kts | 8° |
| 2026-05-04 12:25 | 37.01682 | -5.91431 | 36071 ft | 475 kts | 8° |
| 2026-05-04 12:26 | 37.08020 | -5.89103 | 36059 ft | 475 kts | 8° |
| 2026-05-04 12:26 | 37.14347 | -5.86764 | 36065 ft | 473 kts | 9° |
| 2026-05-04 12:27 | 37.20663 | -5.84416 | 36050 ft | 473 kts | 9° |
| 2026-05-04 12:27 | 37.26924 | -5.82094 | 36057 ft | 473 kts | 9° |
| 2026-05-04 12:28 | 37.33238 | -5.79750 | 36056 ft | 473 kts | 9° |
| 2026-05-04 12:28 | 37.39548 | -5.77408 | 36071 ft | 473 kts | 9° |
| 2026-05-04 12:29 | 37.45739 | -5.74438 | 36061 ft | 481 kts | 19° |
| 2026-05-04 12:29 | 37.51777 | -5.70794 | 36046 ft | 482 kts | 19° |
| 2026-05-04 12:30 | 37.57818 | -5.67125 | 36022 ft | 482 kts | 19° |
| 2026-05-04 12:30 | 37.63867 | -5.63438 | 36045 ft | 483 kts | 19° |
| 2026-05-04 12:31 | 37.69917 | -5.59759 | 36030 ft | 483 kts | 19° |
| 2026-05-04 12:31 | 37.75972 | -5.56083 | 36026 ft | 483 kts | 19° |
| 2026-05-04 12:32 | 37.85050 | -5.50556 | 36057 ft | 483 kts | 20° |
| 2026-05-04 12:33 | 37.91086 | -5.46860 | 36043 ft | 482 kts | 20° |
| 2026-05-04 12:33 | 37.97120 | -5.43158 | 36036 ft | 482 kts | 20° |
| 2026-05-04 12:34 | 38.03148 | -5.39459 | 36033 ft | 481 kts | 20° |
| 2026-05-04 12:34 | 38.09175 | -5.35755 | 36068 ft | 481 kts | 20° |
| 2026-05-04 12:35 | 38.15194 | -5.32045 | 36026 ft | 481 kts | 20° |
| 2026-05-04 12:35 | 38.21223 | -5.28323 | 36017 ft | 481 kts | 20° |
| 2026-05-04 12:36 | 38.27246 | -5.24597 | 36016 ft | 482 kts | 20° |
| 2026-05-04 12:36 | 38.33273 | -5.20860 | 36015 ft | 482 kts | 20° |
| 2026-05-04 12:37 | 38.39266 | -5.17135 | 36015 ft | 482 kts | 20° |
| 2026-05-04 12:37 | 38.45293 | -5.13394 | 36015 ft | 482 kts | 20° |
| 2026-05-04 12:38 | 38.51157 | -5.09181 | 36012 ft | 490 kts | 33° |
| 2026-05-04 12:38 | 38.56197 | -5.03245 | 36045 ft | 494 kts | 41° |
| 2026-05-04 12:39 | 38.60300 | -4.98082 | 36030 ft | 494 kts | 41° |
| 2026-05-04 12:39 | 38.65202 | -4.91922 | 36009 ft | 494 kts | 40° |
| 2026-05-04 12:40 | 38.70110 | -4.85753 | 35999 ft | 495 kts | 41° |
| 2026-05-04 12:40 | 38.75012 | -4.79566 | 35997 ft | 495 kts | 41° |
| 2026-05-04 12:41 | 38.79911 | -4.73363 | 36018 ft | 495 kts | 41° |
| 2026-05-04 12:41 | 38.84812 | -4.67156 | 36011 ft | 495 kts | 41° |
| 2026-05-04 12:42 | 38.89711 | -4.60938 | 36011 ft | 495 kts | 41° |
| 2026-05-04 12:42 | 38.94600 | -4.54704 | 35993 ft | 496 kts | 41° |
| 2026-05-04 12:43 | 38.99462 | -4.48498 | 35992 ft | 496 kts | 41° |
| 2026-05-04 12:43 | 39.04341 | -4.42251 | 36035 ft | 496 kts | 41° |
| 2026-05-04 12:44 | 39.09231 | -4.35985 | 36019 ft | 496 kts | 41° |
| 2026-05-04 12:44 | 39.14114 | -4.29721 | 36001 ft | 496 kts | 41° |
| 2026-05-04 12:45 | 39.18992 | -4.23442 | 35994 ft | 496 kts | 41° |
| 2026-05-04 12:45 | 39.23866 | -4.17159 | 35990 ft | 496 kts | 41° |
| 2026-05-04 12:46 | 39.28739 | -4.10869 | 36009 ft | 496 kts | 41° |
| 2026-05-04 12:46 | 39.33610 | -4.04572 | 35996 ft | 495 kts | 41° |
| 2026-05-04 12:47 | 39.38479 | -3.98261 | 35989 ft | 495 kts | 41° |
| 2026-05-04 12:47 | 39.43337 | -3.91943 | 35980 ft | 495 kts | 41° |
| 2026-05-04 12:48 | 39.48189 | -3.85612 | 35974 ft | 495 kts | 41° |
| 2026-05-04 12:48 | 39.53047 | -3.79280 | 35993 ft | 496 kts | 41° |
| 2026-05-04 12:49 | 39.57907 | -3.72928 | 35979 ft | 496 kts | 42° |
| 2026-05-04 12:49 | 39.62762 | -3.66556 | 35968 ft | 497 kts | 42° |
| 2026-05-04 12:50 | 39.67613 | -3.60175 | 35969 ft | 497 kts | 42° |
| 2026-05-04 12:50 | 39.72475 | -3.53784 | 35968 ft | 497 kts | 42° |
| 2026-05-04 12:51 | 39.77356 | -3.47437 | 35992 ft | 495 kts | 37° |
| 2026-05-04 12:51 | 39.82897 | -3.42291 | 35967 ft | 488 kts | 28° |
| 2026-05-04 12:52 | 39.88578 | -3.37424 | 35955 ft | 489 kts | 29° |
| 2026-05-04 12:52 | 39.94251 | -3.32519 | 35962 ft | 490 kts | 29° |
| 2026-05-04 12:53 | 39.99932 | -3.27612 | 36010 ft | 490 kts | 29° |
| 2026-05-04 12:53 | 40.05612 | -3.22708 | 36000 ft | 489 kts | 29° |
| 2026-05-04 12:54 | 40.11275 | -3.17811 | 36008 ft | 488 kts | 29° |
| 2026-05-04 12:54 | 40.16931 | -3.12912 | 36002 ft | 487 kts | 29° |
| 2026-05-04 12:55 | 40.22578 | -3.08010 | 36018 ft | 487 kts | 30° |
| 2026-05-04 12:55 | 40.28221 | -3.03094 | 35992 ft | 487 kts | 30° |
| 2026-05-04 12:56 | 40.33866 | -2.98164 | 35988 ft | 488 kts | 30° |
| 2026-05-04 12:56 | 40.39511 | -2.93228 | 35983 ft | 488 kts | 30° |
| 2026-05-04 12:57 | 40.45158 | -2.88276 | 35995 ft | 488 kts | 31° |
| 2026-05-04 12:57 | 40.50801 | -2.83311 | 36001 ft | 488 kts | 31° |
| 2026-05-04 12:58 | 40.56434 | -2.78349 | 35995 ft | 487 kts | 31° |
| 2026-05-04 12:58 | 40.62065 | -2.73388 | 35994 ft | 487 kts | 31° |
| 2026-05-04 12:59 | 40.67691 | -2.68435 | 35989 ft | 486 kts | 30° |
| 2026-05-04 12:59 | 40.73312 | -2.63464 | 35966 ft | 487 kts | 31° |
| 2026-05-04 13:00 | 40.78944 | -2.58462 | 35965 ft | 488 kts | 31° |
| 2026-05-04 13:00 | 40.84584 | -2.53449 | 35964 ft | 489 kts | 31° |
| 2026-05-04 13:01 | 40.90221 | -2.48419 | 35996 ft | 489 kts | 31° |
| 2026-05-04 13:01 | 40.95853 | -2.43381 | 35998 ft | 488 kts | 31° |
| 2026-05-04 13:02 | 41.01480 | -2.38343 | 35986 ft | 488 kts | 32° |
| 2026-05-04 13:02 | 41.06957 | -2.33007 | 35979 ft | 489 kts | 36° |
| 2026-05-04 13:03 | 41.12215 | -2.27277 | 35971 ft | 490 kts | 38° |
| 2026-05-04 13:03 | 41.17466 | -2.21499 | 35947 ft | 491 kts | 37° |
| 2026-05-04 13:04 | 41.22781 | -2.15793 | 35946 ft | 492 kts | 37° |
| 2026-05-04 13:04 | 41.28129 | -2.10124 | 35942 ft | 492 kts | 37° |
| 2026-05-04 13:05 | 41.33478 | -2.04431 | 35970 ft | 492 kts | 37° |
| 2026-05-04 13:05 | 41.38808 | -1.98711 | 35973 ft | 492 kts | 37° |
| 2026-05-04 13:06 | 41.44122 | -1.92991 | 35965 ft | 491 kts | 37° |
| 2026-05-04 13:06 | 41.49433 | -1.87269 | 35933 ft | 491 kts | 38° |
| 2026-05-04 13:07 | 41.54740 | -1.81543 | 35928 ft | 491 kts | 38° |
| 2026-05-04 13:07 | 41.60016 | -1.75839 | 35947 ft | 491 kts | 38° |
| 2026-05-04 13:08 | 41.65348 | -1.70050 | 35942 ft | 490 kts | 38° |
| 2026-05-04 13:08 | 41.70638 | -1.64294 | 35933 ft | 490 kts | 38° |
| 2026-05-04 13:09 | 41.75896 | -1.58565 | 35927 ft | 490 kts | 38° |
| 2026-05-04 13:09 | 41.81176 | -1.52797 | 35955 ft | 489 kts | 38° |
| 2026-05-04 13:10 | 41.86452 | -1.47037 | 35921 ft | 489 kts | 38° |
| 2026-05-04 13:10 | 41.91730 | -1.41256 | 35918 ft | 490 kts | 38° |
| 2026-05-04 13:11 | 41.97007 | -1.35455 | 35917 ft | 490 kts | 38° |
| 2026-05-04 13:11 | 42.02281 | -1.29644 | 35935 ft | 490 kts | 39° |
| 2026-05-04 13:12 | 42.07553 | -1.23827 | 35930 ft | 490 kts | 38° |
| 2026-05-04 13:12 | 42.12832 | -1.18017 | 35931 ft | 490 kts | 38° |
| 2026-05-04 13:13 | 42.18106 | -1.12202 | 35899 ft | 490 kts | 39° |
| 2026-05-04 13:13 | 42.23380 | -1.06345 | 35922 ft | 492 kts | 39° |
| 2026-05-04 13:14 | 42.28660 | -1.00460 | 35924 ft | 493 kts | 39° |
| 2026-05-04 13:14 | 42.33941 | -0.94558 | 35924 ft | 493 kts | 39° |
| 2026-05-04 13:15 | 42.39221 | -0.88622 | 35931 ft | 493 kts | 39° |
| 2026-05-04 13:15 | 42.44183 | -0.82245 | 35953 ft | 492 kts | 52° |
| 2026-05-04 13:16 | 42.48360 | -0.74915 | 35924 ft | 491 kts | 54° |
| 2026-05-04 13:16 | 42.52503 | -0.67625 | 35926 ft | 492 kts | 54° |
| 2026-05-04 13:17 | 42.56671 | -0.60267 | 35942 ft | 492 kts | 54° |
| 2026-05-04 13:17 | 42.60843 | -0.52903 | 35947 ft | 492 kts | 54° |
| 2026-05-04 13:18 | 42.65039 | -0.45462 | 35976 ft | 492 kts | 54° |
| 2026-05-04 13:18 | 42.69161 | -0.38120 | 35977 ft | 492 kts | 54° |
| 2026-05-04 13:19 | 42.73300 | -0.30743 | 35974 ft | 491 kts | 54° |
| 2026-05-04 13:19 | 42.77437 | -0.23341 | 35972 ft | 491 kts | 54° |
| 2026-05-04 13:20 | 42.81593 | -0.15965 | 35968 ft | 491 kts | 53° |
| 2026-05-04 13:20 | 42.85923 | -0.08772 | 35968 ft | 491 kts | 51° |
| 2026-05-04 13:21 | 42.90318 | -0.01640 | 35972 ft | 491 kts | 51° |
| 2026-05-04 13:21 | 42.93972 | 0.04386 | 35941 ft | 492 kts | 52° |
| 2026-05-04 13:22 | 42.98285 | 0.11630 | 35956 ft | 492 kts | 52° |
| 2026-05-04 13:22 | 43.02562 | 0.18854 | 35971 ft | 492 kts | 52° |
| 2026-05-04 13:23 | 43.06883 | 0.26120 | 35990 ft | 492 kts | 52° |
| 2026-05-04 13:23 | 43.11200 | 0.33374 | 35981 ft | 492 kts | 52° |
| 2026-05-04 13:24 | 43.15521 | 0.40651 | 35949 ft | 493 kts | 52° |
| 2026-05-04 13:24 | 43.19819 | 0.47923 | 35929 ft | 490 kts | 52° |
| 2026-05-04 13:25 | 43.26240 | 0.58828 | 35951 ft | 490 kts | 53° |
| 2026-05-04 13:25 | 43.30513 | 0.66111 | 35947 ft | 490 kts | 53° |
| 2026-05-04 13:26 | 43.34772 | 0.73405 | 35949 ft | 490 kts | 53° |
| 2026-05-04 13:26 | 43.39035 | 0.80717 | 35911 ft | 490 kts | 52° |
| 2026-05-04 13:27 | 43.43300 | 0.88042 | 35943 ft | 491 kts | 52° |
| 2026-05-04 13:27 | 43.47556 | 0.95366 | 35939 ft | 489 kts | 53° |
| 2026-05-04 13:28 | 43.51793 | 1.02691 | 35937 ft | 488 kts | 53° |
| 2026-05-04 13:28 | 43.56026 | 1.10011 | 35927 ft | 488 kts | 53° |
| 2026-05-04 13:29 | 43.60221 | 1.17290 | 35900 ft | 488 kts | 52° |
| 2026-05-04 13:29 | 43.64443 | 1.24643 | 35914 ft | 489 kts | 53° |
| 2026-05-04 13:30 | 43.68666 | 1.32003 | 35921 ft | 488 kts | 53° |
| 2026-05-04 13:30 | 43.72759 | 1.39480 | 35925 ft | 488 kts | 55° |
| 2026-05-04 13:31 | 43.76734 | 1.47086 | 35930 ft | 488 kts | 56° |
| 2026-05-04 13:31 | 43.80708 | 1.54673 | 35897 ft | 487 kts | 55° |
| 2026-05-04 13:32 | 43.84726 | 1.62235 | 35916 ft | 488 kts | 55° |
| 2026-05-04 13:32 | 43.88757 | 1.69802 | 35923 ft | 488 kts | 55° |
| 2026-05-04 13:33 | 43.92767 | 1.77389 | 35923 ft | 487 kts | 55° |
| 2026-05-04 13:33 | 43.96749 | 1.84999 | 35924 ft | 487 kts | 56° |
| 2026-05-04 13:34 | 44.00628 | 1.92716 | 35895 ft | 487 kts | 57° |
| 2026-05-04 13:34 | 44.04448 | 2.00507 | 35979 ft | 490 kts | 57° |
| 2026-05-04 13:35 | 44.06367 | 2.04409 | 36159 ft | 491 kts | 57° |
| 2026-05-04 13:35 | 44.10242 | 2.12233 | 36608 ft | 491 kts | 57° |
| 2026-05-04 13:35 | 44.12184 | 2.16146 | 36865 ft | 491 kts | 57° |
| 2026-05-04 13:36 | 44.14122 | 2.20053 | 37094 ft | 491 kts | 57° |
| 2026-05-04 13:36 | 44.16058 | 2.23968 | 37318 ft | 491 kts | 57° |
| 2026-05-04 13:36 | 44.17960 | 2.27830 | 37548 ft | 490 kts | 57° |
| 2026-05-04 13:36 | 44.19889 | 2.31750 | 37728 ft | 490 kts | 57° |
| 2026-05-04 13:37 | 44.21814 | 2.35671 | 37914 ft | 491 kts | 57° |
| 2026-05-04 13:37 | 44.25668 | 2.43540 | 37949 ft | 491 kts | 57° |
| 2026-05-04 13:38 | 44.29517 | 2.51405 | 37958 ft | 491 kts | 57° |
| 2026-05-04 13:38 | 44.33358 | 2.59289 | 37949 ft | 491 kts | 57° |
| 2026-05-04 13:39 | 44.37194 | 2.67171 | 37943 ft | 491 kts | 57° |
| 2026-05-04 13:39 | 44.41034 | 2.75067 | 37958 ft | 491 kts | 57° |
| 2026-05-04 13:40 | 44.44857 | 2.82969 | 37970 ft | 490 kts | 57° |
| 2026-05-04 13:40 | 44.48680 | 2.90887 | 37984 ft | 491 kts | 57° |
| 2026-05-04 13:41 | 44.52507 | 2.98809 | 37986 ft | 491 kts | 57° |
| 2026-05-04 13:41 | 44.56329 | 3.06750 | 37976 ft | 491 kts | 57° |
| 2026-05-04 13:42 | 44.61967 | 3.18689 | 37993 ft | 492 kts | 60° |
| 2026-05-04 13:42 | 44.65375 | 3.27013 | 38008 ft | 491 kts | 63° |
| 2026-05-04 13:43 | 44.68602 | 3.35472 | 38016 ft | 491 kts | 64° |
| 2026-05-04 13:43 | 44.71906 | 3.43961 | 38022 ft | 492 kts | 63° |
| 2026-05-04 13:44 | 44.75238 | 3.52295 | 38022 ft | 492 kts | 62° |
| 2026-05-04 13:44 | 44.78601 | 3.60673 | 38023 ft | 492 kts | 62° |
| 2026-05-04 13:45 | 44.81940 | 3.69079 | 38022 ft | 492 kts | 63° |
| 2026-05-04 13:45 | 44.85258 | 3.77504 | 38017 ft | 492 kts | 63° |
| 2026-05-04 13:46 | 44.88569 | 3.85936 | 38004 ft | 492 kts | 62° |
| 2026-05-04 13:46 | 44.91878 | 3.94380 | 38021 ft | 492 kts | 63° |
| 2026-05-04 13:47 | 44.95187 | 4.02835 | 38028 ft | 492 kts | 63° |
| 2026-05-04 13:47 | 44.98488 | 4.11295 | 38039 ft | 492 kts | 63° |
| 2026-05-04 13:48 | 45.01775 | 4.19755 | 38030 ft | 491 kts | 63° |
| 2026-05-04 13:48 | 45.05060 | 4.28229 | 38025 ft | 491 kts | 62° |
| 2026-05-04 13:49 | 45.08336 | 4.36701 | 38034 ft | 491 kts | 62° |
| 2026-05-04 13:49 | 45.11588 | 4.45134 | 37714 ft | 493 kts | 63° |
| 2026-05-04 13:50 | 45.13249 | 4.49452 | 36556 ft | 505 kts | 63° |
| 2026-05-04 13:50 | 45.14937 | 4.53847 | 35725 ft | 508 kts | 63° |
| 2026-05-04 13:50 | 45.16620 | 4.58244 | 35073 ft | 507 kts | 63° |
| 2026-05-04 13:50 | 45.18278 | 4.62579 | 34373 ft | 500 kts | 63° |
| 2026-05-04 13:51 | 45.19923 | 4.66888 | 33541 ft | 493 kts | 63° |
| 2026-05-04 13:51 | 45.21541 | 4.71130 | 32693 ft | 486 kts | 64° |
| 2026-05-04 13:51 | 45.23132 | 4.75308 | 31896 ft | 478 kts | 64° |
| 2026-05-04 13:51 | 45.24697 | 4.79418 | 31209 ft | 468 kts | 64° |
| 2026-05-04 13:52 | 45.27711 | 4.87348 | 30277 ft | 450 kts | 64° |
| 2026-05-04 13:52 | 45.29189 | 4.91249 | 29763 ft | 446 kts | 65° |
| 2026-05-04 13:52 | 45.30640 | 4.95095 | 29318 ft | 440 kts | 65° |
| 2026-05-04 13:53 | 45.32075 | 4.98905 | 28872 ft | 435 kts | 64° |
| 2026-05-04 13:53 | 45.33759 | 5.02415 | 28718 ft | 425 kts | 49° |
| 2026-05-04 13:53 | 45.35841 | 5.05307 | 28593 ft | 413 kts | 45° |
| 2026-05-04 13:54 | 45.39902 | 5.10717 | 28394 ft | 388 kts | 44° |
| 2026-05-04 13:54 | 45.41878 | 5.13340 | 28305 ft | 389 kts | 44° |
| 2026-05-04 13:54 | 45.45998 | 5.18832 | 27842 ft | 428 kts | 45° |
| 2026-05-04 13:55 | 45.48192 | 5.21846 | 27579 ft | 445 kts | 46° |
| 2026-05-04 13:55 | 45.52604 | 5.28105 | 27056 ft | 448 kts | 47° |
| 2026-05-04 13:55 | 45.54795 | 5.31252 | 26791 ft | 446 kts | 47° |
| 2026-05-04 13:56 | 45.56978 | 5.34386 | 26539 ft | 445 kts | 46° |
| 2026-05-04 13:56 | 45.59155 | 5.37505 | 26304 ft | 443 kts | 46° |
| 2026-05-04 13:56 | 45.63491 | 5.43709 | 25790 ft | 439 kts | 46° |
| 2026-05-04 13:57 | 45.65646 | 5.46787 | 25548 ft | 437 kts | 46° |
| 2026-05-04 13:57 | 45.67789 | 5.49848 | 25295 ft | 434 kts | 46° |
| 2026-05-04 13:58 | 45.74165 | 5.58974 | 24011 ft | 430 kts | 46° |
| 2026-05-04 13:58 | 45.78358 | 5.65005 | 22856 ft | 425 kts | 46° |
| 2026-05-04 13:58 | 45.80431 | 5.67993 | 22328 ft | 421 kts | 46° |
| 2026-05-04 13:59 | 45.82484 | 5.70958 | 21805 ft | 418 kts | 46° |
| 2026-05-04 13:59 | 45.84523 | 5.73906 | 21297 ft | 415 kts | 47° |
| 2026-05-04 13:59 | 45.88564 | 5.79751 | 20277 ft | 410 kts | 47° |
| 2026-05-04 14:00 | 45.90566 | 5.82644 | 19772 ft | 408 kts | 47° |
| 2026-05-04 14:00 | 45.94542 | 5.88408 | 18963 ft | 401 kts | 47° |
| 2026-05-04 14:00 | 45.96511 | 5.91272 | 18323 ft | 404 kts | 47° |
| 2026-05-04 14:01 | 45.98463 | 5.94113 | 18014 ft | 395 kts | 47° |
| 2026-05-04 14:01 | 46.00384 | 5.96910 | 17537 ft | 392 kts | 46° |
| 2026-05-04 14:01 | 46.04147 | 6.02397 | 16726 ft | 378 kts | 46° |
| 2026-05-04 14:02 | 46.05969 | 6.05058 | 16052 ft | 371 kts | 46° |
| 2026-05-04 14:02 | 46.07761 | 6.07683 | 15477 ft | 362 kts | 46° |
| 2026-05-04 14:02 | 46.09495 | 6.10222 | 15073 ft | 350 kts | 46° |
| 2026-05-04 14:02 | 46.11180 | 6.12697 | 14687 ft | 344 kts | 46° |
| 2026-05-04 14:03 | 46.12853 | 6.15172 | 14284 ft | 345 kts | 46° |
| 2026-05-04 14:03 | 46.14522 | 6.17651 | 13893 ft | 345 kts | 46° |
| 2026-05-04 14:03 | 46.16187 | 6.20130 | 13484 ft | 344 kts | 47° |
| 2026-05-04 14:03 | 46.17840 | 6.22593 | 13097 ft | 341 kts | 46° |
| 2026-05-04 14:04 | 46.21134 | 6.27482 | 12320 ft | 338 kts | 46° |
| 2026-05-04 14:04 | 46.22779 | 6.29896 | 11934 ft | 337 kts | 46° |
| 2026-05-04 14:04 | 46.24425 | 6.32304 | 11554 ft | 336 kts | 46° |
| 2026-05-04 14:05 | 46.27701 | 6.37106 | 10781 ft | 335 kts | 46° |
| 2026-05-04 14:05 | 46.29332 | 6.39506 | 10401 ft | 334 kts | 46° |
| 2026-05-04 14:05 | 46.30957 | 6.41900 | 10000 ft | 330 kts | 47° |
| 2026-05-04 14:06 | 46.32520 | 6.44208 | 9633 ft | 314 kts | 47° |
| 2026-05-04 14:06 | 46.34028 | 6.46440 | 9082 ft | 307 kts | 47° |
| 2026-05-04 14:06 | 46.35498 | 6.48625 | 8586 ft | 298 kts | 47° |
| 2026-05-04 14:06 | 46.36896 | 6.50697 | 8452 ft | 277 kts | 46° |
| 2026-05-04 14:07 | 46.38421 | 6.52252 | 8324 ft | 267 kts | 20° |
| 2026-05-04 14:07 | 46.40226 | 6.52619 | 8198 ft | 262 kts | 351° |
| 2026-05-04 14:07 | 46.41905 | 6.51739 | 8066 ft | 256 kts | 322° |
| 2026-05-04 14:07 | 46.43226 | 6.50032 | 7823 ft | 254 kts | 313° |
| 2026-05-04 14:08 | 46.44489 | 6.48241 | 7528 ft | 254 kts | 312° |
| 2026-05-04 14:08 | 46.45467 | 6.46186 | 7269 ft | 244 kts | 283° |
| 2026-05-04 14:08 | 46.45530 | 6.43833 | 7113 ft | 229 kts | 251° |
| 2026-05-04 14:08 | 46.44790 | 6.41887 | 6893 ft | 219 kts | 225° |
| 2026-05-04 14:09 | 46.43027 | 6.39277 | 6449 ft | 218 kts | 223° |
| 2026-05-04 14:09 | 46.41964 | 6.37705 | 6154 ft | 219 kts | 223° |
| 2026-05-04 14:10 | 46.39831 | 6.34543 | 5569 ft | 220 kts | 223° |
| 2026-05-04 14:10 | 46.38763 | 6.32961 | 5288 ft | 220 kts | 224° |
| 2026-05-04 14:10 | 46.37692 | 6.31376 | 4992 ft | 220 kts | 224° |
| 2026-05-04 14:10 | 46.36616 | 6.29783 | 4697 ft | 222 kts | 224° |
| 2026-05-04 14:11 | 46.35533 | 6.28180 | 4396 ft | 225 kts | 225° |
| 2026-05-04 14:11 | 46.33328 | 6.24923 | 3783 ft | 224 kts | 225° |
| 2026-05-04 14:11 | 46.32262 | 6.23349 | 3490 ft | 213 kts | 225° |
| 2026-05-04 14:12 | 46.31251 | 6.21857 | 3218 ft | 202 kts | 225° |
| 2026-05-04 14:12 | 46.30295 | 6.20447 | 2975 ft | 190 kts | 225° |
| 2026-05-04 14:12 | 46.28578 | 6.17918 | 2442 ft | 164 kts | 226° |
| 2026-05-04 14:13 | 46.27809 | 6.16786 | 2210 ft | 153 kts | 227° |
| 2026-05-04 14:13 | 46.27079 | 6.15713 | 2003 ft | 147 kts | 227° |
| 2026-05-04 14:13 | 46.26366 | 6.14663 | 1800 ft | 146 kts | 227° |
| 2026-05-04 14:13 | 46.25656 | 6.13621 | 1622 ft | 145 kts | 227° |
| 2026-05-04 14:14 | 46.24946 | 6.12576 | 1440 ft | 146 kts | 228° |
| 2026-05-04 14:14 | 46.23849 | 6.10957 | 1407 ft | 44 kts | 226° |
| 2026-05-04 14:14 | 46.23693 | 6.10772 | 1405 ft | 24 kts | 203° |
| 2026-05-04 14:15 | 46.23501 | 6.10692 | 1402 ft | 2 kts | 193° |
| 2026-05-04 14:15 | 46.23473 | 6.10717 | 1404 ft | 7 kts | 97° |
| 2026-05-04 14:16 | 46.23508 | 6.10791 | 1401 ft | 8 kts | 45° |
| 2026-05-04 14:16 | 46.23539 | 6.10837 | 1397 ft | 4 kts | 49° |
| 2026-05-04 14:17 | 46.23500 | 6.10919 | 1397 ft | 5 kts | 138° |
| 2026-05-04 14:17 | 46.23495 | 6.10926 | 1395 ft | 0 kts | 136° |